sensor_id;sensor_type;location;lat;lon;timestamp;pressure;altitude;pressure_sealevel;temperature;humidity
70437;BME280;57877;39.750;-104.894;2023-07-20T00:00:40;84285.59;;;29.98;17.87
70437;BME280;57877;39.750;-104.894;2023-07-20T00:03:10;84285.84;;;29.97;17.76
70437;BME280;57877;39.750;-104.894;2023-07-20T00:05:30;84278.76;;;31.24;16.98
70437;BME280;57877;39.750;-104.894;2023-07-20T00:07:56;84273.89;;;31.08;17.52
70437;BME280;57877;39.750;-104.894;2023-07-20T00:10:21;84270.16;;;30.78;16.93
70437;BME280;57877;39.750;-104.894;2023-07-20T00:12:46;84264.72;;;31.17;16.94
70437;BME280;57877;39.750;-104.894;2023-07-20T00:15:11;84263.36;;;30.16;17.56
70437;BME280;57877;39.750;-104.894;2023-07-20T00:17:36;84261.75;;;30.16;17.58
70437;BME280;57877;39.750;-104.894;2023-07-20T00:20:01;84265.55;;;30.93;16.61
70437;BME280;57877;39.750;-104.894;2023-07-20T00:22:26;84266.59;;;30.26;18.07
70437;BME280;57877;39.750;-104.894;2023-07-20T00:24:51;84271.76;;;30.96;17.02
70437;BME280;57877;39.750;-104.894;2023-07-20T00:27:16;84274.07;;;31.16;17.36
70437;BME280;57877;39.750;-104.894;2023-07-20T00:29:41;84272.82;;;31.39;16.95
70437;BME280;57877;39.750;-104.894;2023-07-20T00:32:07;84275.14;;;30.80;16.61
70437;BME280;57877;39.750;-104.894;2023-07-20T00:34:32;84272.18;;;30.64;16.86
70437;BME280;57877;39.750;-104.894;2023-07-20T00:36:56;84276.64;;;31.07;16.59
70437;BME280;57877;39.750;-104.894;2023-07-20T00:39:21;84281.22;;;31.12;17.19
70437;BME280;57877;39.750;-104.894;2023-07-20T00:41:47;84281.30;;;30.92;17.11
70437;BME280;57877;39.750;-104.894;2023-07-20T00:44:12;84285.61;;;31.24;16.95
70437;BME280;57877;39.750;-104.894;2023-07-20T00:46:37;84286.39;;;31.26;17.34
70437;BME280;57877;39.750;-104.894;2023-07-20T00:49:02;84284.00;;;31.30;17.27
70437;BME280;57877;39.750;-104.894;2023-07-20T00:51:28;84285.13;;;30.65;17.46
70437;BME280;57877;39.750;-104.894;2023-07-20T00:53:52;84282.31;;;30.88;17.57
70437;BME280;57877;39.750;-104.894;2023-07-20T00:56:17;84277.56;;;31.06;17.05
70437;BME280;57877;39.750;-104.894;2023-07-20T00:58:43;84277.69;;;30.14;17.49
70437;BME280;57877;39.750;-104.894;2023-07-20T01:01:07;84281.89;;;28.91;18.34
70437;BME280;57877;39.750;-104.894;2023-07-20T01:03:32;84287.19;;;30.24;17.61
70437;BME280;57877;39.750;-104.894;2023-07-20T01:06:03;84287.39;;;30.42;17.86
70437;BME280;57877;39.750;-104.894;2023-07-20T01:08:29;84289.49;;;29.36;18.77
70437;BME280;57877;39.750;-104.894;2023-07-20T01:10:53;84292.00;;;29.54;19.00
70437;BME280;57877;39.750;-104.894;2023-07-20T01:13:14;84292.68;;;28.57;19.49
70437;BME280;57877;39.750;-104.894;2023-07-20T01:15:38;84282.83;;;28.53;19.70
70437;BME280;57877;39.750;-104.894;2023-07-20T01:18:03;84276.86;;;28.59;19.53
70437;BME280;57877;39.750;-104.894;2023-07-20T01:20:28;84274.25;;;28.86;19.33
70437;BME280;57877;39.750;-104.894;2023-07-20T01:25:34;84273.25;;;29.68;18.64
70437;BME280;57877;39.750;-104.894;2023-07-20T01:30:16;84280.46;;;29.57;18.25
70437;BME280;57877;39.750;-104.894;2023-07-20T01:32:34;84283.58;;;29.83;18.30
70437;BME280;57877;39.750;-104.894;2023-07-20T01:35:00;84284.02;;;29.81;17.81
70437;BME280;57877;39.750;-104.894;2023-07-20T01:37:24;84284.70;;;29.44;18.20
70437;BME280;57877;39.750;-104.894;2023-07-20T01:39:49;84291.11;;;29.06;18.54
70437;BME280;57877;39.750;-104.894;2023-07-20T01:42:14;84291.14;;;28.95;18.75
70437;BME280;57877;39.750;-104.894;2023-07-20T01:44:39;84292.88;;;28.56;19.25
70437;BME280;57877;39.750;-104.894;2023-07-20T01:47:04;84297.99;;;28.87;18.94
70437;BME280;57877;39.750;-104.894;2023-07-20T01:49:29;84305.88;;;29.22;18.69
70437;BME280;57877;39.750;-104.894;2023-07-20T01:51:54;84308.86;;;28.62;19.05
70437;BME280;57877;39.750;-104.894;2023-07-20T01:54:19;84313.11;;;28.46;19.51
70437;BME280;57877;39.750;-104.894;2023-07-20T01:56:44;84319.61;;;28.25;20.14
70437;BME280;57877;39.750;-104.894;2023-07-20T01:59:09;84319.42;;;28.44;19.75
70437;BME280;57877;39.750;-104.894;2023-07-20T02:01:34;84320.25;;;27.94;19.95
70437;BME280;57877;39.750;-104.894;2023-07-20T02:03:59;84317.64;;;28.01;19.65
70437;BME280;57877;39.750;-104.894;2023-07-20T02:06:24;84319.84;;;28.03;19.74
70437;BME280;57877;39.750;-104.894;2023-07-20T02:08:49;84321.60;;;27.76;19.87
70437;BME280;57877;39.750;-104.894;2023-07-20T02:11:14;84327.47;;;28.48;19.70
70437;BME280;57877;39.750;-104.894;2023-07-20T02:13:40;84331.48;;;28.32;19.75
70437;BME280;57877;39.750;-104.894;2023-07-20T02:16:05;84332.20;;;28.43;19.50
70437;BME280;57877;39.750;-104.894;2023-07-20T02:18:30;84336.17;;;28.68;19.35
70437;BME280;57877;39.750;-104.894;2023-07-20T02:20:55;84339.91;;;29.02;19.09
70437;BME280;57877;39.750;-104.894;2023-07-20T02:23:20;84348.90;;;29.08;19.05
70437;BME280;57877;39.750;-104.894;2023-07-20T02:25:45;84353.02;;;29.62;19.20
70437;BME280;57877;39.750;-104.894;2023-07-20T02:28:13;84351.72;;;29.59;18.77
70437;BME280;57877;39.750;-104.894;2023-07-20T02:30:38;84353.49;;;29.34;19.09
70437;BME280;57877;39.750;-104.894;2023-07-20T02:33:00;84352.85;;;29.75;19.06
70437;BME280;57877;39.750;-104.894;2023-07-20T02:35:25;84355.57;;;29.36;18.90
70437;BME280;57877;39.750;-104.894;2023-07-20T02:37:50;84359.20;;;29.86;18.99
70437;BME280;57877;39.750;-104.894;2023-07-20T02:40:15;84361.92;;;29.43;19.13
70437;BME280;57877;39.750;-104.894;2023-07-20T02:42:40;84357.09;;;29.24;19.73
70437;BME280;57877;39.750;-104.894;2023-07-20T02:45:07;84364.90;;;28.84;19.98
70437;BME280;57877;39.750;-104.894;2023-07-20T02:47:31;84366.23;;;29.12;20.07
70437;BME280;57877;39.750;-104.894;2023-07-20T02:49:56;84371.00;;;29.10;19.63
70437;BME280;57877;39.750;-104.894;2023-07-20T02:52:21;84373.75;;;29.23;19.82
70437;BME280;57877;39.750;-104.894;2023-07-20T02:54:46;84380.13;;;28.84;19.59
70437;BME280;57877;39.750;-104.894;2023-07-20T02:57:11;84388.14;;;28.79;20.22
70437;BME280;57877;39.750;-104.894;2023-07-20T02:59:36;84390.87;;;28.99;20.11
70437;BME280;57877;39.750;-104.894;2023-07-20T03:02:02;84391.47;;;29.08;20.24
70437;BME280;57877;39.750;-104.894;2023-07-20T03:04:27;84394.53;;;28.97;20.37
70437;BME280;57877;39.750;-104.894;2023-07-20T03:06:53;84396.83;;;28.93;20.40
70437;BME280;57877;39.750;-104.894;2023-07-20T03:09:18;84402.11;;;28.86;20.65
70437;BME280;57877;39.750;-104.894;2023-07-20T03:11:43;84398.80;;;28.93;20.66
70437;BME280;57877;39.750;-104.894;2023-07-20T03:14:08;84399.34;;;28.88;20.73
70437;BME280;57877;39.750;-104.894;2023-07-20T03:16:33;84403.27;;;28.80;20.60
70437;BME280;57877;39.750;-104.894;2023-07-20T03:18:59;84410.81;;;28.68;20.70
70437;BME280;57877;39.750;-104.894;2023-07-20T03:21:25;84414.35;;;28.34;20.93
70437;BME280;57877;39.750;-104.894;2023-07-20T03:23:51;84421.73;;;28.36;20.96
70437;BME280;57877;39.750;-104.894;2023-07-20T03:26:16;84429.11;;;27.42;21.44
70437;BME280;57877;39.750;-104.894;2023-07-20T03:28:41;84432.71;;;27.17;21.91
70437;BME280;57877;39.750;-104.894;2023-07-20T03:31:07;84444.86;;;27.19;22.11
70437;BME280;57877;39.750;-104.894;2023-07-20T03:33:33;84452.82;;;27.68;22.12
70437;BME280;57877;39.750;-104.894;2023-07-20T03:35:58;84456.94;;;27.57;22.01
70437;BME280;57877;39.750;-104.894;2023-07-20T03:38:23;84457.28;;;27.22;22.40
70437;BME280;57877;39.750;-104.894;2023-07-20T03:40:51;84456.01;;;27.40;22.56
70437;BME280;57877;39.750;-104.894;2023-07-20T03:43:14;84453.59;;;27.09;23.00
70437;BME280;57877;39.750;-104.894;2023-07-20T03:45:39;84452.85;;;27.07;23.06
70437;BME280;57877;39.750;-104.894;2023-07-20T03:48:04;84451.00;;;27.48;23.08
70437;BME280;57877;39.750;-104.894;2023-07-20T03:50:29;84452.30;;;27.79;22.90
70437;BME280;57877;39.750;-104.894;2023-07-20T03:52:55;84458.74;;;27.30;23.03
70437;BME280;57877;39.750;-104.894;2023-07-20T03:55:20;84464.45;;;27.86;23.11
70437;BME280;57877;39.750;-104.894;2023-07-20T03:57:46;84469.10;;;27.49;23.30
70437;BME280;57877;39.750;-104.894;2023-07-20T04:00:13;84467.78;;;27.53;23.16
70437;BME280;57877;39.750;-104.894;2023-07-20T04:02:38;84461.53;;;27.09;23.87
70437;BME280;57877;39.750;-104.894;2023-07-20T04:05:05;84454.29;;;27.63;23.70
70437;BME280;57877;39.750;-104.894;2023-07-20T04:07:30;84454.92;;;27.65;23.74
70437;BME280;57877;39.750;-104.894;2023-07-20T04:09:56;84457.13;;;27.21;24.02
70437;BME280;57877;39.750;-104.894;2023-07-20T04:12:21;84459.20;;;26.97;24.57
70437;BME280;57877;39.750;-104.894;2023-07-20T04:14:46;84468.10;;;27.31;24.03
70437;BME280;57877;39.750;-104.894;2023-07-20T04:17:11;84476.66;;;27.79;23.64
70437;BME280;57877;39.750;-104.894;2023-07-20T04:19:37;84481.58;;;27.52;23.79
70437;BME280;57877;39.750;-104.894;2023-07-20T04:22:02;84480.88;;;27.45;24.02
70437;BME280;57877;39.750;-104.894;2023-07-20T04:24:27;84481.45;;;27.60;24.03
70437;BME280;57877;39.750;-104.894;2023-07-20T04:26:52;84479.97;;;27.86;23.87
70437;BME280;57877;39.750;-104.894;2023-07-20T04:29:17;84484.46;;;27.63;24.17
70437;BME280;57877;39.750;-104.894;2023-07-20T04:31:42;84485.09;;;27.69;24.01
70437;BME280;57877;39.750;-104.894;2023-07-20T04:34:07;84485.64;;;27.86;23.83
70437;BME280;57877;39.750;-104.894;2023-07-20T04:36:32;84490.41;;;27.42;24.33
70437;BME280;57877;39.750;-104.894;2023-07-20T04:38:57;84486.34;;;27.07;24.76
70437;BME280;57877;39.750;-104.894;2023-07-20T04:41:22;84481.69;;;27.42;24.71
70437;BME280;57877;39.750;-104.894;2023-07-20T04:43:47;84484.02;;;27.48;24.57
70437;BME280;57877;39.750;-104.894;2023-07-20T04:46:12;84484.57;;;27.88;24.47
70437;BME280;57877;39.750;-104.894;2023-07-20T04:48:38;84488.96;;;27.56;24.55
70437;BME280;57877;39.750;-104.894;2023-07-20T04:51:04;84484.71;;;27.89;24.49
70437;BME280;57877;39.750;-104.894;2023-07-20T04:53:28;84487.03;;;27.97;24.47
70437;BME280;57877;39.750;-104.894;2023-07-20T04:55:53;84487.31;;;27.81;24.37
70437;BME280;57877;39.750;-104.894;2023-07-20T04:58:19;84486.96;;;27.95;24.69
70437;BME280;57877;39.750;-104.894;2023-07-20T05:00:43;84486.57;;;27.88;24.66
70437;BME280;57877;39.750;-104.894;2023-07-20T05:03:08;84489.19;;;27.29;24.89
70437;BME280;57877;39.750;-104.894;2023-07-20T05:05:33;84487.25;;;27.57;25.16
70437;BME280;57877;39.750;-104.894;2023-07-20T05:07:58;84486.06;;;27.64;25.03
70437;BME280;57877;39.750;-104.894;2023-07-20T05:10:24;84491.03;;;27.24;25.23
70437;BME280;57877;39.750;-104.894;2023-07-20T05:12:48;84491.68;;;27.09;25.69
70437;BME280;57877;39.750;-104.894;2023-07-20T05:15:13;84490.50;;;27.37;25.50
70437;BME280;57877;39.750;-104.894;2023-07-20T05:17:38;84492.14;;;27.42;25.48
70437;BME280;57877;39.750;-104.894;2023-07-20T05:20:04;84494.00;;;27.02;26.05
70437;BME280;57877;39.750;-104.894;2023-07-20T05:22:28;84495.15;;;27.37;25.71
70437;BME280;57877;39.750;-104.894;2023-07-20T05:24:53;84498.41;;;27.52;25.50
70437;BME280;57877;39.750;-104.894;2023-07-20T05:27:19;84491.82;;;26.88;26.33
70437;BME280;57877;39.750;-104.894;2023-07-20T05:29:45;84492.39;;;26.65;26.73
70437;BME280;57877;39.750;-104.894;2023-07-20T05:32:09;84494.87;;;27.03;26.71
70437;BME280;57877;39.750;-104.894;2023-07-20T05:34:35;84492.14;;;27.16;26.51
70437;BME280;57877;39.750;-104.894;2023-07-20T05:37:00;84490.61;;;27.02;26.65
70437;BME280;57877;39.750;-104.894;2023-07-20T05:39:25;84488.04;;;27.10;26.35
70437;BME280;57877;39.750;-104.894;2023-07-20T05:41:50;84481.15;;;27.42;26.31
70437;BME280;57877;39.750;-104.894;2023-07-20T05:44:15;84477.31;;;27.14;26.45
70437;BME280;57877;39.750;-104.894;2023-07-20T05:46:40;84477.36;;;27.36;26.21
70437;BME280;57877;39.750;-104.894;2023-07-20T05:49:05;84474.22;;;27.05;26.43
70437;BME280;57877;39.750;-104.894;2023-07-20T05:51:30;84467.10;;;27.32;26.43
70437;BME280;57877;39.750;-104.894;2023-07-20T05:53:55;84467.30;;;27.18;26.66
70437;BME280;57877;39.750;-104.894;2023-07-20T05:56:20;84465.81;;;26.76;27.16
70437;BME280;57877;39.750;-104.894;2023-07-20T05:58:45;84464.33;;;26.02;27.99
70437;BME280;57877;39.750;-104.894;2023-07-20T06:01:10;84472.99;;;25.65;28.82
70437;BME280;57877;39.750;-104.894;2023-07-20T06:03:35;84474.64;;;26.08;29.16
70437;BME280;57877;39.750;-104.894;2023-07-20T06:06:01;84470.45;;;25.30;29.99
70437;BME280;57877;39.750;-104.894;2023-07-20T06:08:26;84468.48;;;25.26;30.17
70437;BME280;57877;39.750;-104.894;2023-07-20T06:10:51;84467.44;;;24.94;31.09
70437;BME280;57877;39.750;-104.894;2023-07-20T06:13:16;84460.93;;;25.25;30.78
70437;BME280;57877;39.750;-104.894;2023-07-20T06:15:41;84456.97;;;25.21;30.66
70437;BME280;57877;39.750;-104.894;2023-07-20T06:18:06;84456.09;;;24.95;30.78
70437;BME280;57877;39.750;-104.894;2023-07-20T06:20:31;84455.80;;;25.30;30.75
70437;BME280;57877;39.750;-104.894;2023-07-20T06:22:56;84453.93;;;25.28;30.79
70437;BME280;57877;39.750;-104.894;2023-07-20T06:25:21;84455.79;;;25.28;30.93
70437;BME280;57877;39.750;-104.894;2023-07-20T06:27:46;84458.44;;;25.64;30.81
70437;BME280;57877;39.750;-104.894;2023-07-20T06:30:11;84459.13;;;25.29;30.64
70437;BME280;57877;39.750;-104.894;2023-07-20T06:32:36;84460.85;;;25.25;31.22
70437;BME280;57877;39.750;-104.894;2023-07-20T06:35:01;84463.15;;;25.20;31.60
70437;BME280;57877;39.750;-104.894;2023-07-20T06:37:31;84461.80;;;24.75;32.18
70437;BME280;57877;39.750;-104.894;2023-07-20T06:39:51;84459.94;;;24.58;31.58
70437;BME280;57877;39.750;-104.894;2023-07-20T06:42:16;84457.10;;;25.07;31.27
70437;BME280;57877;39.750;-104.894;2023-07-20T06:44:41;84454.62;;;25.02;30.95
70437;BME280;57877;39.750;-104.894;2023-07-20T06:47:06;84448.36;;;25.41;31.04
70437;BME280;57877;39.750;-104.894;2023-07-20T06:49:32;84445.98;;;25.34;30.64
70437;BME280;57877;39.750;-104.894;2023-07-20T06:51:57;84441.98;;;25.20;31.05
70437;BME280;57877;39.750;-104.894;2023-07-20T06:54:21;84442.56;;;25.00;31.29
70437;BME280;57877;39.750;-104.894;2023-07-20T06:56:46;84445.03;;;25.21;31.07
70437;BME280;57877;39.750;-104.894;2023-07-20T06:59:11;84443.17;;;24.96;30.95
70437;BME280;57877;39.750;-104.894;2023-07-20T07:01:36;84434.10;;;25.19;30.94
70437;BME280;57877;39.750;-104.894;2023-07-20T07:04:01;84423.31;;;25.27;30.81
70437;BME280;57877;39.750;-104.894;2023-07-20T07:06:26;84420.05;;;25.02;30.68
70437;BME280;57877;39.750;-104.894;2023-07-20T07:08:52;84419.43;;;25.15;30.57
70437;BME280;57877;39.750;-104.894;2023-07-20T07:11:17;84416.55;;;25.14;30.95
70437;BME280;57877;39.750;-104.894;2023-07-20T07:13:42;84420.74;;;25.08;30.84
70437;BME280;57877;39.750;-104.894;2023-07-20T07:16:07;84426.17;;;24.56;30.98
70437;BME280;57877;39.750;-104.894;2023-07-20T07:18:32;84425.41;;;24.84;30.69
70437;BME280;57877;39.750;-104.894;2023-07-20T07:20:57;84422.33;;;25.01;30.75
70437;BME280;57877;39.750;-104.894;2023-07-20T07:23:22;84417.02;;;24.77;31.18
70437;BME280;57877;39.750;-104.894;2023-07-20T07:25:47;84415.31;;;24.37;32.03
70437;BME280;57877;39.750;-104.894;2023-07-20T07:28:12;84409.55;;;23.88;32.38
70437;BME280;57877;39.750;-104.894;2023-07-20T07:30:37;84415.00;;;23.94;32.72
70437;BME280;57877;39.750;-104.894;2023-07-20T07:33:02;84415.06;;;23.63;32.83
70437;BME280;57877;39.750;-104.894;2023-07-20T07:35:27;84412.33;;;23.93;32.63
70437;BME280;57877;39.750;-104.894;2023-07-20T07:37:52;84410.63;;;24.10;32.39
70437;BME280;57877;39.750;-104.894;2023-07-20T07:40:17;84411.83;;;24.31;32.11
70437;BME280;57877;39.750;-104.894;2023-07-20T07:42:42;84414.51;;;24.44;32.16
70437;BME280;57877;39.750;-104.894;2023-07-20T07:45:08;84413.35;;;24.33;32.17
70437;BME280;57877;39.750;-104.894;2023-07-20T07:47:32;84412.00;;;24.43;31.94
70437;BME280;57877;39.750;-104.894;2023-07-20T07:49:57;84411.54;;;23.94;32.52
70437;BME280;57877;39.750;-104.894;2023-07-20T07:52:22;84409.17;;;24.26;32.15
70437;BME280;57877;39.750;-104.894;2023-07-20T07:54:47;84408.61;;;24.09;32.40
70437;BME280;57877;39.750;-104.894;2023-07-20T07:57:12;84405.59;;;24.22;32.20
70437;BME280;57877;39.750;-104.894;2023-07-20T07:59:37;84404.44;;;24.25;32.11
70437;BME280;57877;39.750;-104.894;2023-07-20T08:02:05;84404.16;;;24.33;32.01
70437;BME280;57877;39.750;-104.894;2023-07-20T08:04:29;84399.55;;;24.32;31.98
70437;BME280;57877;39.750;-104.894;2023-07-20T08:06:55;84394.16;;;24.31;32.39
70437;BME280;57877;39.750;-104.894;2023-07-20T08:09:21;84389.10;;;23.64;32.87
70437;BME280;57877;39.750;-104.894;2023-07-20T08:11:47;84383.92;;;23.87;32.93
70437;BME280;57877;39.750;-104.894;2023-07-20T08:14:13;84376.98;;;23.71;33.57
70437;BME280;57877;39.750;-104.894;2023-07-20T08:16:39;84370.44;;;23.95;32.93
70437;BME280;57877;39.750;-104.894;2023-07-20T08:19:05;84364.91;;;24.16;32.68
70437;BME280;57877;39.750;-104.894;2023-07-20T08:21:31;84361.14;;;24.05;32.75
70437;BME280;57877;39.750;-104.894;2023-07-20T08:23:57;84354.82;;;23.69;33.85
70437;BME280;57877;39.750;-104.894;2023-07-20T08:26:24;84352.89;;;23.54;33.36
70437;BME280;57877;39.750;-104.894;2023-07-20T08:28:49;84354.81;;;23.47;33.17
70437;BME280;57877;39.750;-104.894;2023-07-20T08:31:15;84357.95;;;23.37;33.70
70437;BME280;57877;39.750;-104.894;2023-07-20T08:33:41;84364.60;;;23.81;33.33
70437;BME280;57877;39.750;-104.894;2023-07-20T08:36:06;84369.25;;;23.92;33.55
70437;BME280;57877;39.750;-104.894;2023-07-20T08:38:32;84365.11;;;24.11;32.97
70437;BME280;57877;39.750;-104.894;2023-07-20T08:40:58;84366.76;;;24.05;33.12
70437;BME280;57877;39.750;-104.894;2023-07-20T08:43:25;84371.21;;;24.21;32.88
70437;BME280;57877;39.750;-104.894;2023-07-20T08:45:53;84378.16;;;24.42;33.21
70437;BME280;57877;39.750;-104.894;2023-07-20T08:48:16;84382.34;;;24.07;33.09
70437;BME280;57877;39.750;-104.894;2023-07-20T08:50:42;84381.17;;;24.32;32.70
70437;BME280;57877;39.750;-104.894;2023-07-20T08:53:06;84385.05;;;24.18;32.95
70437;BME280;57877;39.750;-104.894;2023-07-20T08:55:31;84387.63;;;24.22;32.75
70437;BME280;57877;39.750;-104.894;2023-07-20T08:57:57;84392.08;;;24.32;32.51
70437;BME280;57877;39.750;-104.894;2023-07-20T09:00:21;84393.62;;;24.43;32.54
70437;BME280;57877;39.750;-104.894;2023-07-20T09:02:46;84397.30;;;24.51;32.44
70437;BME280;57877;39.750;-104.894;2023-07-20T09:05:11;84400.25;;;24.69;32.59
70437;BME280;57877;39.750;-104.894;2023-07-20T09:07:37;84402.68;;;24.36;32.56
70437;BME280;57877;39.750;-104.894;2023-07-20T09:10:03;84404.59;;;24.16;33.03
70437;BME280;57877;39.750;-104.894;2023-07-20T09:12:29;84403.89;;;24.41;32.71
70437;BME280;57877;39.750;-104.894;2023-07-20T09:14:57;84413.62;;;24.30;32.79
70437;BME280;57877;39.750;-104.894;2023-07-20T09:17:21;84428.74;;;24.39;32.97
70437;BME280;57877;39.750;-104.894;2023-07-20T09:19:47;84436.42;;;24.30;33.04
70437;BME280;57877;39.750;-104.894;2023-07-20T09:22:13;84441.18;;;23.94;33.23
70437;BME280;57877;39.750;-104.894;2023-07-20T09:24:39;84447.01;;;22.71;34.77
70437;BME280;57877;39.750;-104.894;2023-07-20T09:27:05;84450.88;;;23.28;34.76
70437;BME280;57877;39.750;-104.894;2023-07-20T09:29:31;84457.92;;;23.09;35.30
70437;BME280;57877;39.750;-104.894;2023-07-20T09:32:00;84461.00;;;22.69;36.06
70437;BME280;57877;39.750;-104.894;2023-07-20T09:34:23;84465.52;;;22.34;37.09
70437;BME280;57877;39.750;-104.894;2023-07-20T09:36:49;84468.48;;;22.32;37.68
70437;BME280;57877;39.750;-104.894;2023-07-20T09:39:15;84462.62;;;22.15;38.73
70437;BME280;57877;39.750;-104.894;2023-07-20T09:41:41;84460.84;;;21.95;38.58
70437;BME280;57877;39.750;-104.894;2023-07-20T09:44:07;84453.50;;;22.02;38.50
70437;BME280;57877;39.750;-104.894;2023-07-20T09:48:59;84452.08;;;21.67;38.77
70437;BME280;57877;39.750;-104.894;2023-07-20T09:51:25;84448.90;;;20.55;38.29
70437;BME280;57877;39.750;-104.894;2023-07-20T09:53:53;84438.74;;;20.75;36.45
70437;BME280;57877;39.750;-104.894;2023-07-20T09:56:17;84428.77;;;21.05;35.53
70437;BME280;57877;39.750;-104.894;2023-07-20T09:58:43;84422.95;;;19.77;36.97
70437;BME280;57877;39.750;-104.894;2023-07-20T10:01:09;84409.98;;;20.12;36.74
70437;BME280;57877;39.750;-104.894;2023-07-20T10:03:38;84399.95;;;19.84;37.60
70437;BME280;57877;39.750;-104.894;2023-07-20T10:06:05;84384.60;;;19.70;37.86
70437;BME280;57877;39.750;-104.894;2023-07-20T10:08:28;84370.21;;;19.57;37.65
70437;BME280;57877;39.750;-104.894;2023-07-20T10:10:53;84356.77;;;19.58;37.74
70437;BME280;57877;39.750;-104.894;2023-07-20T10:13:25;84356.82;;;19.76;37.72
70437;BME280;57877;39.750;-104.894;2023-07-20T10:15:49;84360.19;;;20.13;37.30
70437;BME280;57877;39.750;-104.894;2023-07-20T10:18:14;84384.02;;;19.93;38.41
70437;BME280;57877;39.750;-104.894;2023-07-20T10:20:40;84420.85;;;20.87;36.51
70437;BME280;57877;39.750;-104.894;2023-07-20T10:23:04;84436.58;;;21.04;35.47
70437;BME280;57877;39.750;-104.894;2023-07-20T10:25:29;84422.70;;;21.65;34.03
70437;BME280;57877;39.750;-104.894;2023-07-20T10:27:55;84401.53;;;20.46;35.81
70437;BME280;57877;39.750;-104.894;2023-07-20T10:30:21;84403.13;;;21.24;34.69
70437;BME280;57877;39.750;-104.894;2023-07-20T10:32:47;84426.58;;;21.48;33.92
70437;BME280;57877;39.750;-104.894;2023-07-20T10:35:14;84430.53;;;21.91;33.34
70437;BME280;57877;39.750;-104.894;2023-07-20T10:37:46;84430.91;;;21.33;33.93
70437;BME280;57877;39.750;-104.894;2023-07-20T10:42:33;84446.91;;;21.24;34.28
70437;BME280;57877;39.750;-104.894;2023-07-20T10:44:53;84459.60;;;21.87;33.43
70437;BME280;57877;39.750;-104.894;2023-07-20T10:47:19;84468.44;;;21.96;33.13
70437;BME280;57877;39.750;-104.894;2023-07-20T10:52:11;84476.91;;;22.45;32.64
70437;BME280;57877;39.750;-104.894;2023-07-20T10:59:37;84519.51;;;22.57;32.52
70437;BME280;57877;39.750;-104.894;2023-07-20T11:01:56;84553.34;;;22.51;32.67
70437;BME280;57877;39.750;-104.894;2023-07-20T11:06:55;84630.25;;;21.31;35.51
70437;BME280;57877;39.750;-104.894;2023-07-20T11:09:14;84643.95;;;20.27;39.99
70437;BME280;57877;39.750;-104.894;2023-07-20T11:11:40;84680.44;;;19.71;40.83
70437;BME280;57877;39.750;-104.894;2023-07-20T11:14:07;84704.79;;;18.80;47.70
70437;BME280;57877;39.750;-104.894;2023-07-20T11:16:36;84708.46;;;17.24;48.85
70437;BME280;57877;39.750;-104.894;2023-07-20T11:18:58;84727.98;;;17.41;50.01
70437;BME280;57877;39.750;-104.894;2023-07-20T11:21:23;84728.42;;;17.27;51.69
70437;BME280;57877;39.750;-104.894;2023-07-20T11:23:49;84737.57;;;17.20;50.60
70437;BME280;57877;39.750;-104.894;2023-07-20T11:26:15;84734.13;;;17.31;51.36
70437;BME280;57877;39.750;-104.894;2023-07-20T11:28:41;84716.39;;;16.37;51.96
70437;BME280;57877;39.750;-104.894;2023-07-20T11:31:07;84705.36;;;16.98;51.88
70437;BME280;57877;39.750;-104.894;2023-07-20T11:33:33;84691.91;;;17.25;51.02
70437;BME280;57877;39.750;-104.894;2023-07-20T11:35:59;84679.34;;;17.95;50.64
70437;BME280;57877;39.750;-104.894;2023-07-20T11:38:26;84654.87;;;18.49;50.74
70437;BME280;57877;39.750;-104.894;2023-07-20T11:40:51;84615.26;;;17.30;52.98
70437;BME280;57877;39.750;-104.894;2023-07-20T11:43:17;84573.38;;;17.20;55.36
70437;BME280;57877;39.750;-104.894;2023-07-20T11:45:44;84529.00;;;16.73;55.78
70437;BME280;57877;39.750;-104.894;2023-07-20T11:48:15;84509.78;;;16.73;54.97
70437;BME280;57877;39.750;-104.894;2023-07-20T11:50:39;84510.31;;;17.23;54.11
70437;BME280;57877;39.750;-104.894;2023-07-20T11:53:02;84505.40;;;17.22;52.66
70437;BME280;57877;39.750;-104.894;2023-07-20T11:55:27;84495.36;;;17.30;53.32
70437;BME280;57877;39.750;-104.894;2023-07-20T11:58:01;84521.10;;;17.35;52.04
70437;BME280;57877;39.750;-104.894;2023-07-20T12:00:19;84551.05;;;17.33;51.33
70437;BME280;57877;39.750;-104.894;2023-07-20T12:02:45;84573.87;;;17.56;50.32
70437;BME280;57877;39.750;-104.894;2023-07-20T12:05:12;84582.79;;;17.90;49.76
70437;BME280;57877;39.750;-104.894;2023-07-20T12:07:37;84590.58;;;18.19;49.84
70437;BME280;57877;39.750;-104.894;2023-07-20T12:10:06;84583.07;;;18.10;49.05
70437;BME280;57877;39.750;-104.894;2023-07-20T12:12:31;84570.86;;;18.48;48.46
70437;BME280;57877;39.750;-104.894;2023-07-20T12:14:55;84562.11;;;17.58;50.22
70437;BME280;57877;39.750;-104.894;2023-07-20T12:17:21;84556.86;;;17.64;49.41
70437;BME280;57877;39.750;-104.894;2023-07-20T12:19:47;84552.92;;;17.49;51.32
70437;BME280;57877;39.750;-104.894;2023-07-20T12:22:14;84549.30;;;17.47;50.79
70437;BME280;57877;39.750;-104.894;2023-07-20T12:24:39;84543.04;;;17.02;51.00
70437;BME280;57877;39.750;-104.894;2023-07-20T12:27:06;84543.83;;;16.52;52.07
70437;BME280;57877;39.750;-104.894;2023-07-20T12:29:31;84545.70;;;16.75;51.80
70437;BME280;57877;39.750;-104.894;2023-07-20T12:31:57;84539.52;;;17.03;51.39
70437;BME280;57877;39.750;-104.894;2023-07-20T12:34:23;84533.88;;;17.31;51.71
70437;BME280;57877;39.750;-104.894;2023-07-20T12:36:49;84538.48;;;17.19;51.39
70437;BME280;57877;39.750;-104.894;2023-07-20T12:39:15;84534.56;;;17.27;51.27